Time;durP1;ratioP1;P1;durP2;ratioP2;P2;SDS_P1;SDS_P2;PMS_P1;PMS_P2;Temp;Humidity;BMP_temperature;BMP_pressure;BME280_temperature;BME280_humidity;BME280_pressure;Samples;Min_cycle;Max_cycle;Signal;HPM_P1;HPM_P2
2022/01/31 00:00:57;;;;;;;7.90;1.38;;;;;;;6.13;87.50;100734.94;4894293;29;20545;-72
2022/01/31 00:03:23;;;;;;;6.65;1.20;;;;;;;6.15;87.18;100730.84;4902530;29;20036;-72
2022/01/31 00:05:49;;;;;;;1.15;0.77;;;;;;;6.04;87.69;100712.81;4917728;29;20036;-72
2022/01/31 00:08:21;;;;;;;4.72;0.77;;;;;;;6.03;87.72;100711.25;4904769;29;20490;-69
2022/01/31 00:10:46;;;;;;;1.85;0.80;;;;;;;6.11;87.39;100708.53;4921480;29;20134;-72
2022/01/31 00:13:18;;;;;;;3.08;2.17;;;;;;;6.12;87.36;100698.59;4905232;29;20421;-71
2022/01/31 00:15:47;;;;;;;;;;;;;;;6.17;87.35;100690.41;4905667;29;20044;-72
2022/01/31 00:18:12;;;;;;;4.22;1.15;;;;;;;6.14;87.77;100678.47;4903854;29;19930;-71
2022/01/31 00:20:38;;;;;;;4.03;0.93;;;;;;;6.19;87.38;100680.19;4901496;29;20035;-70
2022/01/31 00:23:03;;;;;;;1.67;1.02;;;;;;;6.09;87.48;100667.19;4904037;29;20489;-72
2022/01/31 00:25:29;;;;;;;4.65;0.88;;;;;;;6.12;87.72;100666.53;4905685;29;20986;-71
2022/01/31 00:27:54;;;;;;;14.48;1.15;;;;;;;6.12;88.30;100661.19;4902371;29;20036;-68
2022/01/31 00:30:20;;;;;;;8.52;1.10;;;;;;;6.15;88.17;100647.19;4918091;29;20109;-70
2022/01/31 00:32:47;;;;;;;4.75;1.10;;;;;;;6.03;87.72;100642.53;4905122;29;20083;-70
2022/01/31 00:35:12;;;;;;;15.00;1.80;;;;;;;5.98;88.24;100632.03;4905176;29;20107;-72
2022/01/31 00:37:38;;;;;;;3.38;0.80;;;;;;;5.99;88.33;100603.41;4918250;29;20135;-71
2022/01/31 00:40:05;;;;;;;5.40;1.25;;;;;;;5.89;88.76;100599.25;4916777;29;20035;-72
2022/01/31 00:42:32;;;;;;;7.18;1.35;;;;;;;5.97;88.00;100586.94;4921415;29;20032;-72
2022/01/31 00:45:09;;;;;;;14.30;1.52;;;;;;;5.97;88.35;100585.06;4902640;29;20446;-72
2022/01/31 00:47:37;;;;;;;4.95;1.13;;;;;;;6.03;87.59;100578.41;4918048;29;20068;-72
2022/01/31 00:50:11;;;;;;;4.45;0.90;;;;;;;6.01;87.36;100567.25;4904907;29;20079;-68
2022/01/31 00:52:38;;;;;;;11.00;1.60;;;;;;;5.97;87.49;100555.66;4901378;29;20050;-72
2022/01/31 00:55:06;;;;;;;5.20;0.70;;;;;;;5.97;88.02;100552.19;4918914;29;20561;-72
2022/01/31 00:57:31;;;;;;;17.67;1.95;;;;;;;5.91;88.40;100545.47;4906677;29;20088;-71
2022/01/31 00:59:57;;;;;;;6.25;1.25;;;;;;;5.88;88.46;100527.44;4905618;29;20036;-69
2022/01/31 01:02:25;;;;;;;3.35;0.93;;;;;;;5.87;88.29;100520.50;4903125;29;20509;-72
2022/01/31 01:04:51;;;;;;;6.18;1.05;;;;;;;5.85;88.43;100510.16;4919369;29;20071;-71
2022/01/31 01:07:19;;;;;;;1.55;0.73;;;;;;;5.84;88.02;100510.50;4918173;29;20063;-71
2022/01/31 01:09:45;;;;;;;10.15;1.00;;;;;;;5.90;87.55;100493.16;4906038;29;20174;-72
2022/01/31 01:12:13;;;;;;;6.03;1.00;;;;;;;5.85;88.30;100486.09;4916072;29;20047;-71
2022/01/31 01:14:40;;;;;;;5.45;1.42;;;;;;;5.84;87.87;100484.56;4922194;29;20040;-72
2022/01/31 01:17:05;;;;;;;3.67;0.85;;;;;;;5.84;87.98;100471.19;4924233;28;20050;-68
2022/01/31 01:19:31;;;;;;;11.20;1.35;;;;;;;5.86;87.47;100460.19;4906367;29;20044;-73
2022/01/31 01:21:58;;;;;;;7.68;1.50;;;;;;;5.81;87.38;100442.41;4917818;29;20043;-72
2022/01/31 01:24:23;;;;;;;1.67;0.93;;;;;;;5.73;87.83;100429.16;4905335;29;20036;-72
2022/01/31 01:26:49;;;;;;;5.25;1.20;;;;;;;5.74;87.63;100412.78;4912543;29;20042;-71
2022/01/31 01:29:17;;;;;;;1.55;0.80;;;;;;;5.85;87.02;100403.28;4920964;29;20047;-70
2022/01/31 01:31:46;;;;;;;4.47;1.33;;;;;;;5.86;86.26;100401.41;4919342;29;20054;-72
2022/01/31 01:34:12;;;;;;;7.82;1.25;;;;;;;5.81;86.96;100398.88;4918295;29;20036;-72
2022/01/31 01:36:38;;;;;;;4.50;0.95;;;;;;;5.73;86.64;100403.22;4905674;29;20115;-72
2022/01/31 01:39:07;;;;;;;3.80;0.70;;;;;;;5.80;86.15;100398.13;4917626;29;20094;-71
2022/01/31 01:41:33;;;;;;;1.73;0.93;;;;;;;5.75;86.70;100378.84;4916812;29;20079;-72
2022/01/31 01:43:59;;;;;;;8.85;1.10;;;;;;;5.75;85.61;100341.47;4916611;29;20036;-70
2022/01/31 01:46:24;;;;;;;3.33;0.75;;;;;;;5.82;85.71;100317.66;4918996;29;20028;-71
2022/01/31 01:48:50;;;;;;;4.80;0.90;;;;;;;5.78;85.43;100319.41;4902364;29;20036;-70
2022/01/31 01:51:16;;;;;;;13.93;1.23;;;;;;;5.65;85.42;100315.16;4917247;29;20062;-71
2022/01/31 01:53:42;;;;;;;6.55;1.20;;;;;;;5.60;85.63;100302.78;4921849;29;20490;-70
2022/01/31 01:56:09;;;;;;;2.38;0.93;;;;;;;5.54;85.99;100304.09;4919633;29;20027;-70
2022/01/31 01:58:41;;;;;;;3.97;1.27;;;;;;;5.72;85.31;100308.16;4919944;29;20076;-71
2022/01/31 02:01:12;;;;;;;4.55;0.73;;;;;;;5.68;85.10;100307.28;4916244;29;20398;-70
2022/01/31 02:03:54;;;;;;;1.27;0.90;;;;;;;5.67;84.53;100304.94;4918447;29;20038;-71
2022/01/31 02:06:24;;;;;;;6.63;1.13;;;;;;;5.70;85.08;100296.25;4903571;29;20520;-69
2022/01/31 02:08:51;;;;;;;8.88;1.15;;;;;;;5.68;85.59;100290.47;4901745;29;20036;-71
2022/01/31 02:11:22;;;;;;;3.10;0.82;;;;;;;5.60;86.24;100283.31;4902658;29;20122;-71
2022/01/31 02:13:50;;;;;;;5.40;1.05;;;;;;;5.55;86.04;100268.31;4919420;29;20420;-71
2022/01/31 02:16:35;;;;;;;3.92;0.57;;;;;;;5.57;86.49;100259.94;4905100;29;20572;-71
2022/01/31 02:19:23;;;;;;;8.10;1.05;;;;;;;5.62;85.39;100259.72;4901700;29;20118;-71
2022/01/31 02:22:16;;;;;;;2.80;1.10;;;;;;;5.50;85.63;100245.25;4907463;29;20076;-70
2022/01/31 02:24:44;;;;;;;6.45;1.13;;;;;;;5.53;85.79;100233.91;4904301;29;20052;-70
2022/01/31 02:27:30;;;;;;;4.50;1.10;;;;;;;5.59;85.24;100231.03;4905334;29;20120;-69
2022/01/31 02:29:56;;;;;;;5.20;1.05;;;;;;;5.53;85.14;100216.31;4917779;29;20127;-69
2022/01/31 02:32:23;;;;;;;4.07;1.00;;;;;;;5.62;84.61;100209.00;4916196;29;20054;-71
2022/01/31 02:34:52;;;;;;;4.13;1.00;;;;;;;5.64;84.98;100206.75;4902235;29;20028;-71
2022/01/31 02:37:19;;;;;;;5.80;1.25;;;;;;;5.70;84.35;100206.22;4916273;29;20044;-69
2022/01/31 02:39:46;;;;;;;3.38;0.82;;;;;;;5.57;84.69;100191.31;4910051;29;20027;-69
2022/01/31 02:42:13;;;;;;;13.45;1.45;;;;;;;5.53;85.49;100189.63;4903490;29;20032;-71
2022/01/31 02:44:44;;;;;;;2.05;0.80;;;;;;;5.54;85.66;100178.59;4910832;29;20469;-70
2022/01/31 02:47:27;;;;;;;6.82;1.10;;;;;;;5.66;85.01;100164.47;4905346;29;20040;-69
2022/01/31 02:49:58;;;;;;;12.05;1.23;;;;;;;5.66;85.43;100164.47;4918063;29;20064;-71
2022/01/31 02:52:27;;;;;;;5.07;0.50;;;;;;;5.66;84.91;100156.47;4933922;28;20036;-69
2022/01/31 02:54:54;;;;;;;8.65;0.95;;;;;;;5.62;85.31;100153.69;4918683;29;20043;-70
2022/01/31 02:57:20;;;;;;;1.08;0.55;;;;;;;5.56;85.11;100141.66;4898573;29;20424;-70
2022/01/31 02:59:45;;;;;;;10.88;1.23;;;;;;;5.54;85.75;100138.56;4902336;29;20043;-70
2022/01/31 03:02:11;;;;;;;1.00;0.60;;;;;;;5.56;84.88;100132.88;4915639;29;20974;-72
2022/01/31 03:04:37;;;;;;;6.03;1.10;;;;;;;5.53;85.58;100127.09;4910551;29;20043;-70
2022/01/31 03:07:09;;;;;;;5.03;1.20;;;;;;;5.60;85.14;100123.88;4916541;29;20099;-70
2022/01/31 03:09:35;;;;;;;3.90;0.63;;;;;;;5.71;84.91;100124.22;4917058;29;20059;-70
2022/01/31 03:12:04;;;;;;;2.03;1.15;;;;;;;5.71;85.14;100113.53;4901199;29;20051;-71
2022/01/31 03:14:36;;;;;;;4.03;1.02;;;;;;;5.59;85.40;100108.97;4917069;29;20027;-70
2022/01/31 03:17:08;;;;;;;5.15;0.68;;;;;;;5.63;85.92;100093.06;4903275;29;20038;-71
2022/01/31 03:19:38;;;;;;;5.28;1.45;;;;;;;5.50;87.04;100084.25;4902373;29;20028;-71
2022/01/31 03:22:05;;;;;;;4.55;0.65;;;;;;;5.43;87.75;100073.38;4902302;29;20040;-70
2022/01/31 03:24:30;;;;;;;3.40;0.98;;;;;;;5.47;87.26;100068.91;4921015;29;20192;-70
2022/01/31 03:26:56;;;;;;;5.82;0.80;;;;;;;5.44;87.56;100056.22;4921874;29;20085;-70
2022/01/31 03:29:21;;;;;;;3.20;0.75;;;;;;;5.55;85.56;100036.00;4912005;29;20048;-70
2022/01/31 03:31:47;;;;;;;3.60;1.63;;;;;;;5.41;87.20;100033.66;4902033;29;20115;-71
2022/01/31 03:34:12;;;;;;;1.15;0.63;;;;;;;5.47;86.85;100021.66;4917004;29;20075;-70
2022/01/31 03:36:38;;;;;;;0.73;0.50;;;;;;;5.47;86.66;100016.31;4916990;29;20083;-71
2022/01/31 03:39:06;;;;;;;1.58;0.82;;;;;;;5.40;86.81;100002.75;4899916;29;20036;-70
2022/01/31 03:41:33;;;;;;;2.85;1.00;;;;;;;5.43;87.42;100001.28;4915998;29;20051;-71
2022/01/31 03:43:58;;;;;;;4.15;0.70;;;;;;;5.39;87.63;99985.19;4917602;29;20032;-71
2022/01/31 03:46:24;;;;;;;3.55;0.90;;;;;;;5.29;88.10;99982.97;4902790;29;20177;-71
2022/01/31 03:48:50;;;;;;;9.52;1.00;;;;;;;5.33;87.83;99978.50;4896994;29;20059;-71
2022/01/31 03:51:41;;;;;;;1.35;0.60;;;;;;;5.38;87.34;99966.84;4905432;29;20040;-71
2022/01/31 03:54:06;;;;;;;6.15;0.88;;;;;;;5.55;87.69;99952.44;4934013;28;20402;-70
2022/01/31 03:56:32;;;;;;;1.25;0.80;;;;;;;5.48;87.45;99939.66;4915340;29;20074;-70
2022/01/31 03:59:15;;;;;;;2.28;0.55;;;;;;;5.36;88.35;99926.34;4910015;29;20046;-71
2022/01/31 04:01:41;;;;;;;3.83;0.85;;;;;;;5.31;88.29;99921.22;4911175;29;20050;-70
2022/01/31 04:04:10;;;;;;;1.25;0.50;;;;;;;5.43;87.92;99903.31;4911076;29;20150;-71
2022/01/31 04:06:42;;;;;;;0.22;0.22;;;;;;;5.39;88.10;99898.97;4885075;29;20044;-70
2022/01/31 04:09:08;;;;;;;3.60;0.88;;;;;;;5.38;88.70;99890.19;4903459;29;20048;-71
2022/01/31 04:11:33;;;;;;;2.30;1.00;;;;;;;5.36;88.96;99878.31;4899526;29;20050;-70
2022/01/31 04:13:59;;;;;;;13.05;1.58;;;;;;;5.40;88.72;99863.16;4915775;29;20079;-70
2022/01/31 04:16:25;;;;;;;5.40;1.55;;;;;;;5.20;89.87;99856.09;4904615;29;20055;-71
2022/01/31 04:18:51;;;;;;;2.28;1.58;;;;;;;5.33;89.22;99853.06;4906072;29;20457;-70
2022/01/31 04:21:16;;;;;;;7.70;2.20;;;;;;;5.35;89.11;99834.03;4900894;29;20044;-70
2022/01/31 04:23:42;;;;;;;1.67;0.63;;;;;;;5.29;89.94;99836.16;4908282;29;20048;-69
2022/01/31 04:26:12;;;;;;;0.35;0.25;;;;;;;5.23;89.89;99826.84;4903074;29;20040;-69
2022/01/31 04:28:45;;;;;;;1.85;0.50;;;;;;;5.36;89.36;99816.91;4902311;29;20040;-71
2022/01/31 04:33:46;;;;;;;2.30;0.40;;;;;;;5.32;89.30;99808.78;4896349;29;20055;-69
2022/01/31 04:36:15;;;;;;;2.05;0.73;;;;;;;5.29;89.04;99796.13;4894691;29;20048;-70
2022/01/31 04:38:45;;;;;;;7.18;0.75;;;;;;;5.22;90.25;99795.97;4898640;29;20054;-69
2022/01/31 04:41:11;;;;;;;1.03;0.43;;;;;;;5.28;89.82;99783.91;4898056;29;20104;-70
2022/01/31 04:43:37;;;;;;;4.60;0.82;;;;;;;5.37;88.76;99779.19;4897751;29;20032;-70
2022/01/31 04:46:05;;;;;;;2.17;1.20;;;;;;;5.21;90.10;99772.25;4901272;29;20099;-70
2022/01/31 04:48:31;;;;;;;4.53;0.77;;;;;;;5.23;89.83;99754.81;4902646;29;20075;-71
2022/01/31 04:50:56;;;;;;;2.65;1.17;;;;;;;5.21;90.52;99748.25;4901859;29;20491;-71
2022/01/31 04:53:22;;;;;;;14.95;1.70;;;;;;;5.42;89.17;99749.56;4902128;29;20054;-70
2022/01/31 04:55:48;;;;;;;0.43;0.30;;;;;;;5.21;88.85;99734.91;4907205;29;20118;-70
2022/01/31 04:58:13;;;;;;;4.18;0.20;;;;;;;5.26;89.46;99726.66;4905981;29;20088;-70
2022/01/31 05:00:39;;;;;;;0.80;0.70;;;;;;;5.07;90.22;99727.28;4899453;29;20131;-71
2022/01/31 05:03:11;;;;;;;0.95;0.60;;;;;;;5.09;90.73;99706.38;4904467;29;20628;-71
2022/01/31 05:05:37;;;;;;;3.40;0.60;;;;;;;5.16;90.17;99703.13;4909866;29;20067;-69
2022/01/31 05:08:03;;;;;;;9.60;0.68;;;;;;;5.11;90.42;99700.72;4908524;29;20068;-70
2022/01/31 05:10:28;;;;;;;0.85;0.40;;;;;;;5.30;89.76;99693.59;4914860;29;20604;-71
2022/01/31 05:12:53;;;;;;;5.18;0.82;;;;;;;5.23;89.59;99693.41;4904781;29;20817;-70
2022/01/31 05:15:19;;;;;;;0.40;0.40;;;;;;;5.14;90.17;99687.47;4904332;29;20054;-71
2022/01/31 05:17:44;;;;;;;0.80;0.80;;;;;;;5.14;89.41;99687.47;4907574;29;20116;-70
2022/01/31 05:20:10;;;;;;;6.25;0.63;;;;;;;5.09;89.93;99682.38;4910757;29;20039;-69
2022/01/31 05:22:35;;;;;;;0.80;0.80;;;;;;;5.09;90.24;99674.38;4928446;29;20504;-71
2022/01/31 05:25:01;;;;;;;9.40;1.08;;;;;;;5.10;90.25;99678.59;4920601;29;20042;-70
2022/01/31 05:27:26;;;;;;;2.40;0.82;;;;;;;5.09;90.59;99668.28;4905354;29;20198;-70
2022/01/31 05:29:52;;;;;;;1.88;1.33;;;;;;;5.09;90.36;99668.28;4903657;29;20044;-70
2022/01/31 05:32:17;;;;;;;1.23;0.80;;;;;;;5.12;89.97;99660.38;4899034;29;20050;-70
2022/01/31 05:34:42;;;;;;;5.25;1.58;;;;;;;5.12;90.25;99660.38;4917129;29;20277;-70
2022/01/31 05:37:08;;;;;;;1.30;1.20;;;;;;;5.17;89.83;99653.97;4903626;29;20517;-70
2022/01/31 05:39:33;;;;;;;3.63;0.60;;;;;;;5.27;89.08;99654.25;4896199;29;20043;-70
2022/01/31 05:41:59;;;;;;;4.45;0.75;;;;;;;5.19;89.84;99643.75;4901427;29;20028;-70
2022/01/31 05:44:25;;;;;;;4.82;1.40;;;;;;;5.18;89.63;99637.66;4902838;29;20127;-70
2022/01/31 05:46:51;;;;;;;0.45;0.30;;;;;;;5.13;89.59;99629.88;4902505;29;20131;-70
2022/01/31 05:49:16;;;;;;;1.75;0.77;;;;;;;5.31;88.35;99635.66;4901142;29;20068;-69
2022/01/31 05:52:04;;;;;;;10.38;1.02;;;;;;;5.22;88.21;99629.72;4903696;29;20182;-70
2022/01/31 05:54:30;;;;;;;2.70;0.75;;;;;;;5.17;89.26;99622.75;4905333;29;20066;-70
2022/01/31 05:56:56;;;;;;;2.45;1.00;;;;;;;5.15;89.28;99619.66;4897624;29;20414;-71
2022/01/31 05:59:21;;;;;;;0.77;0.75;;;;;;;5.24;89.20;99617.59;4900436;29;20039;-70
2022/01/31 06:01:47;;;;;;;5.43;1.15;;;;;;;5.23;88.33;99613.38;4895306;29;20036;-72
2022/01/31 06:04:12;;;;;;;1.10;0.73;;;;;;;5.19;88.41;99609.06;4917171;29;20051;-71
2022/01/31 06:06:38;;;;;;;4.65;1.08;;;;;;;5.30;88.12;99602.84;4897423;29;20095;-71
2022/01/31 06:09:04;;;;;;;11.07;2.08;;;;;;;5.41;87.19;99603.91;4902364;29;20043;-71
2022/01/31 06:11:33;;;;;;;1.50;0.52;;;;;;;5.18;87.75;99594.97;4915459;29;20096;-70
2022/01/31 06:14:00;;;;;;;0.82;0.68;;;;;;;5.09;89.11;99594.34;4901389;29;20280;-71
2022/01/31 06:16:27;;;;;;;7.55;0.95;;;;;;;5.05;89.73;99587.38;4897888;29;20059;-70
2022/01/31 06:18:52;;;;;;;4.80;0.65;;;;;;;5.10;90.04;99579.91;4902225;29;20043;-71
2022/01/31 06:21:17;;;;;;;2.70;1.02;;;;;;;5.10;90.33;99585.22;4901874;29;20580;-71
2022/01/31 06:23:43;;;;;;;5.40;0.98;;;;;;;5.13;90.59;99586.44;4901745;29;20060;-71
2022/01/31 06:26:10;;;;;;;10.00;0.73;;;;;;;5.13;90.61;99578.44;4900568;29;20532;-70
2022/01/31 06:28:36;;;;;;;6.13;1.05;;;;;;;5.12;90.43;99576.88;4919355;29;20040;-72
2022/01/31 06:31:21;;;;;;;1.98;0.68;;;;;;;5.12;90.23;99563.53;4922447;29;20051;-71
2022/01/31 06:33:47;;;;;;;6.05;0.88;;;;;;;5.19;90.46;99566.38;4929128;29;20044;-70
2022/01/31 06:36:12;;;;;;;4.40;0.88;;;;;;;5.19;90.29;99559.13;4890304;29;20039;-70
2022/01/31 06:38:40;;;;;;;4.63;0.95;;;;;;;5.06;90.95;99562.25;4903362;29;20040;-71
2022/01/31 06:41:09;;;;;;;5.30;1.15;;;;;;;5.05;92.19;99556.13;4901049;29;20051;-69
2022/01/31 06:43:34;;;;;;;3.50;0.82;;;;;;;4.98;92.63;99561.31;4899707;29;20092;-71
2022/01/31 06:45:59;;;;;;;11.85;1.60;;;;;;;5.04;92.89;99549.25;4902922;29;20187;-70
2022/01/31 06:48:25;;;;;;;2.55;0.70;;;;;;;5.10;92.46;99558.56;4901662;29;20044;-71
2022/01/31 06:50:50;;;;;;;10.48;1.27;;;;;;;5.05;92.52;99550.78;4898741;29;20055;-71
2022/01/31 06:53:17;;;;;;;5.00;1.25;;;;;;;4.97;93.18;99538.44;4901740;29;20052;-71
2022/01/31 06:55:43;;;;;;;6.45;1.17;;;;;;;5.01;93.47;99544.63;4902552;29;20047;-71
2022/01/31 06:58:09;;;;;;;3.85;1.23;;;;;;;5.00;93.92;99543.06;4902799;29;20119;-72
2022/01/31 07:00:35;;;;;;;1.95;1.08;;;;;;;5.00;94.26;99539.63;4909006;29;20123;-70
2022/01/31 07:03:02;;;;;;;0.73;0.47;;;;;;;4.97;93.84;99534.97;4899086;29;20111;-71
2022/01/31 07:05:28;;;;;;;4.80;1.13;;;;;;;4.92;94.71;99538.66;4900511;29;20163;-70
2022/01/31 07:07:53;;;;;;;7.60;1.38;;;;;;;4.93;94.61;99534.91;4895323;29;20036;-71
2022/01/31 07:10:19;;;;;;;1.27;0.80;;;;;;;4.94;95.29;99530.31;4898027;29;20036;-71
2022/01/31 07:12:51;;;;;;;6.82;1.55;;;;;;;4.90;95.01;99527.56;4896145;29;20382;-71
2022/01/31 07:15:17;;;;;;;1.23;0.70;;;;;;;4.96;95.55;99520.06;4901242;29;20044;-70
2022/01/31 07:17:44;;;;;;;5.13;0.82;;;;;;;4.83;96.23;99511.41;4897527;29;20146;-71
2022/01/31 07:20:20;;;;;;;0.70;0.50;;;;;;;4.86;96.35;99524.03;4894415;29;20458;-71
2022/01/31 07:22:51;;;;;;;3.85;0.95;;;;;;;4.93;96.45;99507.44;4899891;29;20047;-72
2022/01/31 07:25:34;;;;;;;8.25;1.00;;;;;;;4.89;96.69;99517.25;4900428;29;20079;-73
2022/01/31 07:28:05;;;;;;;6.22;0.93;;;;;;;4.86;96.63;99521.38;4910184;29;20126;-72
2022/01/31 07:30:31;;;;;;;1.58;0.57;;;;;;;4.92;96.63;99512.00;4897988;29;20509;-72
2022/01/31 07:32:56;;;;;;;6.90;0.77;;;;;;;4.93;96.60;99504.78;4898702;29;20521;-72
2022/01/31 07:35:22;;;;;;;4.47;0.90;;;;;;;4.99;96.64;99509.53;4899646;29;20039;-72
2022/01/31 07:37:48;;;;;;;8.80;1.13;;;;;;;4.91;96.41;99507.78;4898169;29;20051;-71
2022/01/31 07:40:13;;;;;;;5.50;1.08;;;;;;;4.83;97.30;99499.97;4915247;29;20030;-72
2022/01/31 07:42:39;;;;;;;1.25;0.98;;;;;;;4.84;97.84;99501.53;4902818;29;20039;-73
2022/01/31 07:45:05;;;;;;;15.63;1.48;;;;;;;4.86;97.67;99499.28;4899490;29;20465;-72
2022/01/31 07:47:30;;;;;;;7.30;2.40;;;;;;;4.83;97.53;99500.75;4901418;29;20586;-72
2022/01/31 07:49:57;;;;;;;3.38;1.38;;;;;;;4.99;97.27;99504.19;4900679;29;20146;-71
2022/01/31 07:52:23;;;;;;;2.97;0.70;;;;;;;4.97;97.11;99498.41;4897385;29;20619;-73
2022/01/31 07:54:48;;;;;;;2.08;0.75;;;;;;;4.88;97.39;99492.47;4899860;29;20031;-72
2022/01/31 07:57:14;;;;;;;4.72;1.30;;;;;;;4.85;97.35;99497.72;4901302;29;20040;-72
2022/01/31 07:59:40;;;;;;;2.60;1.67;;;;;;;4.80;97.79;99490.00;4900898;29;20044;-71
2022/01/31 08:02:05;;;;;;;5.60;1.13;;;;;;;4.75;98.11;99488.34;4894769;29;20036;-72
2022/01/31 08:04:30;;;;;;;4.30;0.82;;;;;;;4.76;97.57;99492.59;4899153;29;20032;-71
2022/01/31 08:06:56;;;;;;;3.78;0.57;;;;;;;4.71;97.39;99487.50;4900556;29;20456;-71
2022/01/31 08:09:21;;;;;;;0.75;0.60;;;;;;;4.64;98.02;99482.00;4900424;29;20074;-73
2022/01/31 08:11:47;;;;;;;1.67;0.98;;;;;;;4.69;97.80;99489.72;4897697;29;20484;-71
2022/01/31 08:14:16;;;;;;;2.35;1.13;;;;;;;4.67;98.18;99491.19;4901022;29;20037;-71
2022/01/31 08:16:42;;;;;;;1.15;0.52;;;;;;;4.69;97.82;99486.28;4901678;29;20048;-71
2022/01/31 08:19:08;;;;;;;7.22;0.95;;;;;;;4.61;98.46;99485.34;4897627;29;20088;-71
2022/01/31 08:21:35;;;;;;;7.30;1.55;;;;;;;4.64;98.78;99482.00;4913128;29;20040;-70
2022/01/31 08:24:00;;;;;;;2.83;0.85;;;;;;;4.64;99.19;99475.88;4899027;29;20043;-72
2022/01/31 08:26:26;;;;;;;2.92;1.25;;;;;;;4.66;99.44;99489.66;4900444;29;20036;-71
2022/01/31 08:29:01;;;;;;;8.32;1.13;;;;;;;4.63;99.29;99490.34;4899923;29;20039;-70
2022/01/31 08:36:34;;;;;;;1.92;0.80;;;;;;;4.57;100.00;99495.13;4902176;29;20047;-70
2022/01/31 08:39:08;;;;;;;8.57;1.25;;;;;;;4.63;99.43;99490.34;4901507;29;20048;-72
2022/01/31 08:41:35;;;;;;;2.78;0.93;;;;;;;4.61;99.99;99489.91;4901460;29;20036;-70
2022/01/31 08:44:00;;;;;;;1.02;0.75;;;;;;;4.63;100.00;99488.44;4899254;29;20039;-71
2022/01/31 08:46:26;;;;;;;7.47;1.20;;;;;;;4.64;100.00;99487.31;4901315;29;20036;-72
2022/01/31 08:48:51;;;;;;;1.60;1.02;;;;;;;4.70;100.00;99482.50;4903315;29;20047;-71
2022/01/31 08:51:17;;;;;;;2.78;0.77;;;;;;;4.88;99.25;99475.72;4899539;29;20064;-71
2022/01/31 08:53:42;;;;;;;0.80;0.80;;;;;;;4.88;99.94;99478.38;4902780;29;20072;-71
2022/01/31 08:56:10;;;;;;;4.28;1.30;;;;;;;4.80;100.00;99482.00;4911944;29;20718;-70
2022/01/31 08:58:42;;;;;;;2.50;0.73;;;;;;;4.76;99.74;99478.47;4899852;29;20486;-71
2022/01/31 09:01:09;;;;;;;1.27;0.73;;;;;;;4.81;99.55;99478.19;4912329;29;20043;-71
2022/01/31 09:06:07;;;;;;;7.53;1.45;;;;;;;4.80;100.00;99480.09;4901137;29;20055;-71
2022/01/31 09:08:32;;;;;;;2.55;1.13;;;;;;;4.92;100.00;99477.31;4904653;29;20119;-71
2022/01/31 09:10:57;;;;;;;0.65;0.65;;;;;;;4.95;99.72;99481.22;4904986;29;20040;-72
2022/01/31 09:13:23;;;;;;;1.80;1.00;;;;;;;4.95;99.75;99495.31;4905761;29;20032;-70
2022/01/31 09:15:49;;;;;;;1.77;0.80;;;;;;;4.89;99.64;99494.03;4920224;29;20123;-70
2022/01/31 09:18:15;;;;;;;5.47;1.63;;;;;;;4.81;100.00;99496.88;4904491;29;20044;-70
2022/01/31 09:20:41;;;;;;;0.40;0.40;;;;;;;4.81;100.00;99492.31;4903668;29;20072;-70
2022/01/31 09:23:06;;;;;;;2.00;1.30;;;;;;;4.79;100.00;99491.09;4911650;29;20502;-71
2022/01/31 09:25:33;;;;;;;1.70;0.85;;;;;;;4.83;100.00;99491.97;4909126;29;20055;-70
2022/01/31 09:27:59;;;;;;;0.63;0.63;;;;;;;4.89;100.00;99498.59;4902698;29;20678;-71
2022/01/31 09:30:27;;;;;;;7.05;1.23;;;;;;;4.94;100.00;99490.31;4896594;29;20561;-71
2022/01/31 09:32:54;;;;;;;4.88;2.05;;;;;;;5.08;100.00;99494.09;4904811;29;20036;-70
2022/01/31 09:35:20;;;;;;;4.63;1.15;;;;;;;4.96;100.00;99496.06;4903406;29;20569;-70
2022/01/31 09:37:45;;;;;;;5.05;0.98;;;;;;;4.87;100.00;99492.81;4898890;29;20123;-69
2022/01/31 09:40:16;;;;;;;3.45;1.02;;;;;;;4.85;100.00;99487.84;4901440;29;20028;-71
2022/01/31 09:43:40;;;;;;;4.68;1.17;;;;;;;4.88;100.00;99486.38;4916736;29;20047;-70
2022/01/31 09:46:45;;;;;;;2.65;1.45;;;;;;;4.92;100.00;99495.22;4897077;29;20497;-70
2022/01/31 09:48:51;;;;;;;1.90;1.27;;;;;;;4.99;100.00;99498.84;4903247;29;20048;-71
2022/01/31 09:51:22;;;;;;;4.65;1.63;;;;;;;4.96;100.00;99496.84;4901483;29;20032;-71
2022/01/31 09:54:03;;;;;;;2.45;1.13;;;;;;;5.09;100.00;99497.53;4898195;29;20119;-71
2022/01/31 09:56:33;;;;;;;0.90;0.90;;;;;;;5.02;100.00;99500.03;4915633;29;20127;-70
2022/01/31 09:59:00;;;;;;;8.10;1.23;;;;;;;5.12;100.00;99516.28;4902375;29;20075;-70
2022/01/31 10:01:28;;;;;;;1.20;0.82;;;;;;;5.08;100.00;99515.44;4895340;29;21773;-71
2022/01/31 10:03:57;;;;;;;6.38;1.67;;;;;;;5.03;100.00;99520.28;4902762;29;20032;-70
2022/01/31 10:06:32;;;;;;;3.42;1.60;;;;;;;5.02;100.00;99513.38;4889232;29;20070;-71
2022/01/31 10:09:10;;;;;;;2.03;1.00;;;;;;;5.06;100.00;99523.00;4892317;29;20840;-70
2022/01/31 10:11:48;;;;;;;5.28;1.60;;;;;;;5.10;100.00;99521.19;4892501;29;20048;-71
2022/01/31 10:17:06;;;;;;;2.22;1.13;;;;;;;5.14;100.00;99519.41;4903918;29;20202;-72
2022/01/31 10:19:44;;;;;;;3.97;1.63;;;;;;;5.23;100.00;99514.63;4913305;29;20064;-71
2022/01/31 10:22:12;;;;;;;3.67;1.08;;;;;;;5.23;100.00;99513.84;4894598;29;20032;-70
2022/01/31 10:24:39;;;;;;;1.25;0.85;;;;;;;5.32;100.00;99507.22;4899551;29;20054;-69
2022/01/31 10:27:07;;;;;;;1.60;1.48;;;;;;;5.24;100.00;99518.88;4899237;29;20120;-69
2022/01/31 10:29:33;;;;;;;4.93;0.90;;;;;;;5.28;100.00;99516.28;4897222;29;20047;-69
2022/01/31 10:32:03;;;;;;;6.85;1.48;;;;;;;5.31;100.00;99512.91;4896727;29;20035;-70
2022/01/31 10:34:31;;;;;;;1.42;1.20;;;;;;;5.35;100.00;99522.53;4897793;29;20048;-69
2022/01/31 10:37:29;;;;;;;5.40;1.48;;;;;;;5.35;100.00;99532.44;4898770;29;20073;-68
2022/01/31 10:53:48;;;;;;;2.53;1.08;;;;;;;5.80;99.54;99548.69;4897501;29;20047;-71
2022/01/31 10:56:16;;;;;;;3.97;1.40;;;;;;;5.52;100.00;99552.66;4911905;29;20044;-71
2022/01/31 10:59:00;;;;;;;3.30;1.90;;;;;;;5.41;100.00;99563.09;4897244;29;20394;-71
2022/01/31 11:01:26;;;;;;;8.43;1.33;;;;;;;5.36;100.00;99571.38;4906969;29;20028;-70
2022/01/31 11:03:53;;;;;;;1.73;1.45;;;;;;;5.56;100.00;99575.63;4900812;29;20058;-71
2022/01/31 11:06:23;;;;;;;1.92;1.52;;;;;;;5.48;100.00;99574.69;4912366;29;20103;-71
2022/01/31 11:08:51;;;;;;;2.20;1.20;;;;;;;5.42;100.00;99575.28;4901514;29;20044;-69
2022/01/31 11:11:17;;;;;;;2.85;1.65;;;;;;;5.37;100.00;99571.00;4886850;29;20042;-70
2022/01/31 11:13:42;;;;;;;1.92;1.15;;;;;;;5.40;100.00;99575.66;4913684;29;21042;-69
2022/01/31 11:16:09;;;;;;;5.40;1.33;;;;;;;5.47;100.00;99581.16;4910638;29;20059;-70
2022/01/31 11:18:36;;;;;;;2.90;1.30;;;;;;;5.49;100.00;99586.94;4912558;29;20047;-69
2022/01/31 11:21:08;;;;;;;1.58;1.20;;;;;;;5.62;100.00;99590.25;4893539;29;20028;-69
2022/01/31 11:23:41;;;;;;;3.42;1.10;;;;;;;5.48;100.00;99603.28;4895537;29;20036;-70
2022/01/31 11:26:11;;;;;;;1.52;1.10;;;;;;;5.48;100.00;99611.28;4897088;29;20052;-70
2022/01/31 11:28:40;;;;;;;2.90;1.33;;;;;;;5.45;100.00;99606.66;4900608;29;20245;-70
2022/01/31 11:31:06;;;;;;;1.98;1.42;;;;;;;5.37;100.00;99603.03;4893925;29;20035;-70
2022/01/31 11:33:34;;;;;;;2.70;1.25;;;;;;;5.35;100.00;99601.84;4898735;29;20114;-71
2022/01/31 11:36:00;;;;;;;5.35;1.92;;;;;;;5.42;100.00;99607.31;4895186;29;20068;-70
2022/01/31 11:38:27;;;;;;;0.93;0.82;;;;;;;5.37;100.00;99608.38;4896025;29;20740;-71
2022/01/31 11:40:59;;;;;;;2.42;1.35;;;;;;;5.45;100.00;99607.44;4898438;29;20036;-70
2022/01/31 11:43:24;;;;;;;3.83;1.13;;;;;;;5.47;100.00;99609.75;4899078;29;20064;-71
2022/01/31 11:45:51;;;;;;;1.77;1.10;;;;;;;5.53;100.00;99618.25;4897983;29;20467;-71
2022/01/31 11:48:24;;;;;;;2.80;1.40;;;;;;;5.57;100.00;99625.25;4899582;29;20103;-70
2022/01/31 11:50:53;;;;;;;1.75;1.17;;;;;;;5.63;100.00;99623.09;4896076;29;20040;-70
2022/01/31 11:53:35;;;;;;;7.43;1.35;;;;;;;5.55;100.00;99613.34;4898234;29;20042;-71
2022/01/31 11:56:08;;;;;;;2.05;1.05;;;;;;;5.62;100.00;99624.97;4891527;29;20086;-70
2022/01/31 11:58:44;;;;;;;3.40;1.35;;;;;;;5.60;100.00;99637.09;4886779;29;21373;-70
2022/01/31 12:01:10;;;;;;;3.45;1.33;;;;;;;5.64;100.00;99648.66;4894901;29;20409;-70
2022/01/31 12:03:36;;;;;;;2.28;1.33;;;;;;;5.62;100.00;99656.22;4897944;29;20040;-70
2022/01/31 12:06:09;;;;;;;1.48;0.90;;;;;;;5.89;99.31;99652.69;4901839;29;20255;-70
2022/01/31 12:08:40;;;;;;;1.98;0.80;;;;;;;5.94;99.10;99649.75;4921297;28;20047;-71